createdAt,value
2022-12-17T00:00:39.402Z,74.16
2022-12-17T00:05:59.798Z,74.01
2022-12-17T00:11:19.921Z,74.35
2022-12-17T00:16:41.395Z,74.46
2022-12-17T00:22:01.831Z,74.27
2022-12-17T00:27:22.396Z,74.14
2022-12-17T00:32:43.875Z,74.51
2022-12-17T00:38:05.122Z,74.19
2022-12-17T00:43:27.072Z,74.31
2022-12-17T00:48:48.955Z,74.00
2022-12-17T00:54:09.593Z,74.26
2022-12-17T00:59:29.666Z,74.01
2022-12-17T01:04:52.166Z,74.09
2022-12-17T01:10:12.589Z,74.24
2022-12-17T01:15:32.931Z,74.29
2022-12-17T01:20:54.612Z,73.68
2022-12-17T01:26:17.380Z,73.85
2022-12-17T01:31:37.888Z,74.33
2022-12-17T01:36:59.509Z,73.86
2022-12-17T01:42:19.604Z,74.35
2022-12-17T01:47:40.064Z,74.08
2022-12-17T01:53:01.673Z,73.91
2022-12-17T01:58:22.293Z,74.13
2022-12-17T02:03:42.602Z,73.83
2022-12-17T02:09:15.745Z,73.85
2022-12-17T02:14:41.543Z,74.35
2022-12-17T02:20:05.595Z,74.52
2022-12-17T02:25:34.927Z,74.91
2022-12-17T02:30:57.240Z,74.94
2022-12-17T02:36:21.322Z,74.70
2022-12-17T02:41:43.954Z,74.33
2022-12-17T02:47:06.274Z,74.56
2022-12-17T02:52:31.929Z,74.35
2022-12-17T02:57:55.093Z,73.90
2022-12-17T03:03:17.168Z,74.08
2022-12-17T03:08:37.825Z,73.84
2022-12-17T03:13:57.908Z,74.16
2022-12-17T03:19:20.400Z,73.89
2022-12-17T03:24:40.690Z,74.76
2022-12-17T03:30:00.876Z,74.57
2022-12-17T03:35:22.751Z,75.00
2022-12-17T03:40:48.378Z,74.68
2022-12-17T03:46:10.728Z,74.40
2022-12-17T03:51:32.165Z,74.95
2022-12-17T03:56:53.330Z,75.03
2022-12-17T04:02:13.644Z,75.48
2022-12-17T04:07:35.514Z,75.26
2022-12-17T04:12:55.638Z,75.34
2022-12-17T04:18:15.835Z,75.30
2022-12-17T04:23:37.870Z,75.53
2022-12-17T04:28:58.141Z,75.68
2022-12-17T04:34:18.396Z,75.27
2022-12-17T04:39:39.745Z,75.29
2022-12-17T04:45:11.632Z,75.76
2022-12-17T04:50:31.900Z,75.33
2022-12-17T04:55:53.712Z,75.51
2022-12-17T05:01:13.997Z,75.36
2022-12-17T05:06:34.724Z,75.26
2022-12-17T05:11:56.517Z,75.64
2022-12-17T05:17:16.623Z,75.59
2022-12-17T05:22:36.720Z,75.56
2022-12-17T05:27:58.225Z,75.14
2022-12-17T05:33:18.812Z,75.25
2022-12-17T05:38:39.196Z,75.40
2022-12-17T05:44:01.114Z,75.61
2022-12-17T05:49:21.179Z,75.37
2022-12-17T05:54:55.864Z,75.30
2022-12-17T06:00:17.563Z,75.31
2022-12-17T06:05:38.317Z,75.50
2022-12-17T06:10:58.632Z,75.53
2022-12-17T06:16:20.098Z,75.81
2022-12-17T06:21:40.746Z,75.91
2022-12-17T06:27:01.163Z,75.91
2022-12-17T06:32:23.099Z,75.94
2022-12-17T06:37:43.633Z,76.00
2022-12-17T06:43:11.342Z,76.12
2022-12-17T06:48:32.711Z,76.38
2022-12-17T06:53:53.455Z,76.37
2022-12-17T06:59:13.578Z,76.30
2022-12-17T07:04:35.013Z,76.06
2022-12-17T07:09:55.055Z,75.98
2022-12-17T07:15:17.610Z,76.01
2022-12-17T07:20:39.151Z,76.03
2022-12-17T07:26:00.102Z,76.26
2022-12-17T07:31:20.801Z,76.23
2022-12-17T07:36:42.311Z,76.34
2022-12-17T07:42:17.456Z,76.24
2022-12-17T07:47:37.735Z,76.09
2022-12-17T07:52:59.363Z,76.35
2022-12-17T07:58:20.950Z,76.52
2022-12-17T08:03:41.719Z,76.83
2022-12-17T08:09:03.513Z,77.24
2022-12-17T08:14:23.546Z,77.25
2022-12-17T08:19:43.660Z,77.62
2022-12-17T08:25:05.299Z,77.66
2022-12-17T08:30:26.259Z,77.58
2022-12-17T08:35:46.853Z,77.59
2022-12-17T08:41:08.344Z,77.72
2022-12-17T08:46:28.570Z,77.41
2022-12-17T08:51:49.122Z,77.32
2022-12-17T08:57:10.442Z,77.78
2022-12-17T09:02:31.184Z,77.59
2022-12-17T09:07:51.620Z,77.52
2022-12-17T09:13:13.048Z,77.45
2022-12-17T09:18:37.173Z,77.75
2022-12-17T09:23:57.767Z,78.20
2022-12-17T09:29:19.229Z,78.14
2022-12-17T09:34:39.396Z,77.97
2022-12-17T09:39:59.611Z,78.25
2022-12-17T09:45:24.639Z,78.08
2022-12-17T09:50:45.221Z,77.94
2022-12-17T09:56:07.453Z,77.82
2022-12-17T10:01:35.338Z,77.69
2022-12-17T10:07:04.233Z,77.99
2022-12-17T10:12:31.875Z,78.10
2022-12-17T10:17:53.705Z,77.84
2022-12-17T10:23:14.656Z,77.57
2022-12-17T10:28:37.313Z,78.29
2022-12-17T10:33:59.858Z,78.68
2022-12-17T10:39:20.284Z,78.44
2022-12-17T10:44:51.227Z,78.36
2022-12-17T10:50:17.551Z,78.53
2022-12-17T10:55:41.386Z,78.26
2022-12-17T11:01:01.633Z,78.50
2022-12-17T11:06:24.297Z,78.55
2022-12-17T11:11:44.438Z,78.55
2022-12-17T11:17:07.933Z,78.72
2022-12-17T11:22:40.117Z,79.07
2022-12-17T11:28:03.227Z,78.67
2022-12-17T11:33:28.100Z,78.71
2022-12-17T11:38:53.231Z,78.44
2022-12-17T11:44:21.414Z,78.20
2022-12-17T11:49:48.127Z,78.54
2022-12-17T11:55:15.107Z,78.72
2022-12-17T12:00:38.095Z,78.51
2022-12-17T12:06:13.649Z,78.71
2022-12-17T12:11:44.703Z,78.86
2022-12-17T12:17:10.786Z,78.31
2022-12-17T12:22:34.723Z,78.56
2022-12-17T12:28:00.266Z,79.00
2022-12-17T12:33:32.222Z,78.89
2022-12-17T12:38:56.238Z,79.01
2022-12-17T12:44:19.755Z,79.12
2022-12-17T12:49:43.435Z,78.85
2022-12-17T12:55:12.050Z,79.17
2022-12-17T13:00:58.832Z,79.25
2022-12-17T13:06:01.637Z,79.65
2022-12-17T13:11:28.505Z,79.38
2022-12-17T13:16:42.524Z,79.74
2022-12-17T13:21:45.492Z,79.74
2022-12-17T13:26:48.214Z,79.72
2022-12-17T13:32:03.651Z,79.37
2022-12-17T13:37:08.785Z,80.06
2022-12-17T13:42:26.593Z,80.00
2022-12-17T13:47:32.417Z,80.03
2022-12-17T13:52:35.120Z,80.06
2022-12-17T13:57:38.779Z,79.66
2022-12-17T14:02:43.474Z,79.98
2022-12-17T14:07:46.438Z,80.07
2022-12-17T14:12:49.962Z,79.84
2022-12-17T14:17:55.096Z,80.61
2022-12-17T14:23:01.562Z,80.10
2022-12-17T14:28:06.389Z,80.22
2022-12-17T14:33:29.221Z,80.44
2022-12-17T14:38:48.167Z,80.06
2022-12-17T14:43:57.041Z,80.27
2022-12-17T14:49:02.327Z,80.29
2022-12-17T14:54:18.632Z,80.33
2022-12-17T14:59:32.186Z,80.39
2022-12-17T15:04:38.294Z,80.09
2022-12-17T15:09:42.037Z,79.97
2022-12-17T15:14:45.303Z,80.14
2022-12-17T15:19:55.776Z,80.47
2022-12-17T15:24:59.013Z,80.46
2022-12-17T15:30:01.739Z,80.93
2022-12-17T15:35:06.655Z,80.57
2022-12-17T15:40:12.005Z,80.48
2022-12-17T15:45:14.793Z,80.65
2022-12-17T15:50:19.847Z,81.10
2022-12-17T15:55:22.598Z,80.56
2022-12-17T16:00:25.418Z,80.89
2022-12-17T16:05:29.547Z,81.06
2022-12-17T16:10:32.514Z,80.92
2022-12-17T16:15:35.263Z,81.29
2022-12-17T16:20:39.424Z,81.08
2022-12-17T16:25:42.201Z,81.38
2022-12-17T16:30:44.907Z,81.63
2022-12-17T16:35:52.895Z,81.44
2022-12-17T16:40:57.160Z,81.51
2022-12-17T16:45:59.954Z,81.35
2022-12-17T16:51:16.346Z,81.37
2022-12-17T16:56:21.627Z,81.39
2022-12-17T17:01:26.671Z,81.43
2022-12-17T17:06:33.899Z,81.83
2022-12-17T17:11:36.988Z,82.04
2022-12-17T17:16:40.021Z,82.03
2022-12-17T17:21:49.813Z,82.00
2022-12-17T17:26:53.961Z,82.01
2022-12-17T17:32:13.550Z,82.52
2022-12-17T17:37:18.435Z,82.61
2022-12-17T17:42:21.210Z,82.33
2022-12-17T17:47:23.970Z,82.68
2022-12-17T17:52:28.040Z,81.94
2022-12-17T17:57:30.938Z,81.89
2022-12-17T18:02:33.822Z,81.97
2022-12-17T18:07:38.081Z,82.02
2022-12-17T18:12:58.548Z,82.45
2022-12-17T18:18:01.356Z,81.73
2022-12-17T18:23:05.932Z,81.76
2022-12-17T18:28:08.722Z,82.30
2022-12-17T18:33:11.479Z,82.26
2022-12-17T18:38:15.651Z,81.14
2022-12-17T18:43:25.356Z,81.46
2022-12-17T18:48:28.206Z,80.96
2022-12-17T18:53:33.524Z,81.30
2022-12-17T18:58:36.613Z,80.66
2022-12-17T19:03:39.452Z,80.34
2022-12-17T19:08:43.783Z,80.71
2022-12-17T19:13:50.827Z,80.59
2022-12-17T19:18:54.815Z,80.55
2022-12-17T19:24:01.285Z,80.45
2022-12-17T19:29:05.316Z,80.84
2022-12-17T19:34:08.983Z,80.09
2022-12-17T19:39:15.138Z,80.49
2022-12-17T19:44:20.058Z,79.77
2022-12-17T19:49:23.003Z,79.51
2022-12-17T19:54:27.309Z,79.66
2022-12-17T19:59:30.078Z,79.96
2022-12-17T20:04:33.091Z,79.53
2022-12-17T20:09:37.147Z,79.26
2022-12-17T20:14:40.342Z,79.74
2022-12-17T20:19:43.619Z,78.85
2022-12-17T20:24:47.983Z,78.74
2022-12-17T20:29:50.744Z,79.25
2022-12-17T20:34:53.650Z,79.06
2022-12-17T20:39:57.735Z,78.71
2022-12-17T20:45:00.512Z,78.09
2022-12-17T20:50:03.452Z,78.33
2022-12-17T20:55:08.514Z,77.76
2022-12-17T21:00:12.593Z,77.76
2022-12-17T21:05:15.320Z,77.33
2022-12-17T21:10:19.821Z,77.73
2022-12-17T21:15:22.824Z,77.14
2022-12-17T21:20:25.676Z,77.41
2022-12-17T21:25:30.522Z,76.51
2022-12-17T21:30:36.942Z,76.78
2022-12-17T21:35:39.686Z,77.13
2022-12-17T21:40:43.853Z,76.56
2022-12-17T21:45:46.939Z,76.70
2022-12-17T21:50:49.695Z,76.49
2022-12-17T21:55:54.904Z,76.13
2022-12-17T22:00:58.552Z,75.89
2022-12-17T22:06:06.855Z,76.16
2022-12-17T22:11:12.341Z,76.27
2022-12-17T22:16:16.529Z,75.74
2022-12-17T22:21:19.363Z,75.50
2022-12-17T22:26:24.165Z,74.93
2022-12-17T22:31:47.640Z,74.93
2022-12-17T22:39:55.445Z,75.48
2022-12-17T22:44:36.594Z,75.49
2022-12-17T22:47:55.805Z,74.69
2022-12-17T22:52:58.589Z,74.64
2022-12-17T22:58:03.161Z,74.43
2022-12-17T23:03:06.512Z,74.76
2022-12-17T23:08:09.256Z,74.14
2022-12-17T23:13:13.373Z,74.24
2022-12-17T23:18:16.114Z,74.42
2022-12-17T23:23:18.896Z,73.91
2022-12-17T23:28:22.922Z,73.95
2022-12-17T23:33:25.661Z,74.15
2022-12-17T23:38:28.434Z,73.89
2022-12-17T23:43:35.681Z,73.46
2022-12-17T23:48:45.144Z,73.58
2022-12-17T23:53:48.459Z,73.54
2022-12-17T23:58:56.236Z,73.70
